createdAt,value
2018-08-24T00:04:20.288Z,1.9
2018-08-24T00:14:34.439Z,1.6
2018-08-24T00:24:48.574Z,1.6
2018-08-24T00:35:02.801Z,1.7
2018-08-24T00:45:17.057Z,1.9
2018-08-24T01:05:45.395Z,2.0
2018-08-24T01:15:58.862Z,1.8
2018-08-24T01:26:12.937Z,2.4
2018-08-24T01:36:32.651Z,2.5
2018-08-24T01:46:46.277Z,2.5
2018-08-24T01:56:59.527Z,2.3
2018-08-24T02:07:12.745Z,3.4
2018-08-24T02:17:26.053Z,2.9
2018-08-24T02:27:40.470Z,2.7
2018-08-24T02:37:54.415Z,2.5
2018-08-24T02:48:07.970Z,3.1
2018-08-24T02:58:22.091Z,3.7
2018-08-24T03:08:35.982Z,2.4
2018-08-24T03:18:47.412Z,2.8
2018-08-24T03:29:01.777Z,3.8
2018-08-24T03:39:15.962Z,3.2
2018-08-24T03:49:30.046Z,2.7
2018-08-24T03:59:44.478Z,4.2
2018-08-24T04:10:29.884Z,6.0
2018-08-24T04:20:44.220Z,3.3
2018-08-24T04:30:55.421Z,3.0
2018-08-24T04:41:09.777Z,4.0
2018-08-24T04:51:23.997Z,4.6
2018-08-24T05:02:09.719Z,5.3
2018-08-24T05:12:20.934Z,4.8
2018-08-24T05:22:32.239Z,5.9
2018-08-24T05:32:45.766Z,6.2
2018-08-24T05:53:19.548Z,8.4
2018-08-24T06:03:33.385Z,11.7
2018-08-24T06:13:47.144Z,14.5
2018-08-24T06:24:05.346Z,15.6
2018-08-24T06:34:18.541Z,11.4
2018-08-24T06:44:37.710Z,21.3
2018-08-24T06:54:52.324Z,18.7
2018-08-24T07:05:06.677Z,8.7
2018-08-24T07:15:27.582Z,6.6
2018-08-24T07:25:41.004Z,7.2
2018-08-24T07:35:54.202Z,5.7
2018-08-24T07:46:07.905Z,3.5
2018-08-24T07:56:35.562Z,3.3
2018-08-24T08:06:49.061Z,3.2
2018-08-24T08:17:03.185Z,1.8
2018-08-24T08:27:16.308Z,3.4
2018-08-24T08:37:29.852Z,2.1
2018-08-24T08:48:16.877Z,1.5
2018-08-24T08:58:30.094Z,1.2
2018-08-24T09:11:15.863Z,2.6
2018-08-24T09:22:29.101Z,1.6
2018-08-24T09:34:07.979Z,1.7
2018-08-24T09:44:21.478Z,1.8
2018-08-24T09:55:33.111Z,1.0
2018-08-24T10:07:02.463Z,1.4
2018-08-24T10:17:49.193Z,0.7
2018-08-24T10:28:03.193Z,1.0
2018-08-24T10:38:17.867Z,1.0
2018-08-24T10:48:32.364Z,1.2
2018-08-24T10:58:46.262Z,1.1
2018-08-24T11:08:59.800Z,1.7
2018-08-24T11:19:13.258Z,0.7
2018-08-24T11:30:06.507Z,0.7
2018-08-24T11:40:20.365Z,1.5
2018-08-24T11:50:44.959Z,0.6
2018-08-24T12:11:14.907Z,0.7
2018-08-24T12:21:58.079Z,0.7
2018-08-24T12:32:12.397Z,0.7
2018-08-24T12:43:00.450Z,0.8
2018-08-24T12:54:08.913Z,2.0
2018-08-24T13:05:03.611Z,1.1
2018-08-24T13:26:33.654Z,1.2
2018-08-24T13:36:47.764Z,0.8
2018-08-24T13:57:44.950Z,0.9
2018-08-24T14:09:01.720Z,0.6
2018-08-24T14:30:29.159Z,0.7
2018-08-24T14:41:20.422Z,0.9
2018-08-24T15:02:28.995Z,0.9
2018-08-24T15:13:11.321Z,1.0
2018-08-24T15:23:49.819Z,1.0
2018-08-24T15:34:15.069Z,1.1
2018-08-24T15:55:26.130Z,0.8
2018-08-24T16:05:46.388Z,1.1
2018-08-24T16:26:14.881Z,1.2
2018-08-24T16:36:47.786Z,0.9
2018-08-24T16:57:51.317Z,0.9
2018-08-24T17:08:02.984Z,1.3
2018-08-24T17:28:37.337Z,2.0
2018-08-24T17:38:57.427Z,1.0
2018-08-24T17:59:30.682Z,0.7
2018-08-24T18:09:46.253Z,0.8
2018-08-24T18:20:05.565Z,0.8
2018-08-24T18:30:35.393Z,0.8
2018-08-24T18:40:51.437Z,0.6
2018-08-24T19:01:41.787Z,1.7
2018-08-24T19:22:21.773Z,1.1
2018-08-24T19:32:43.795Z,0.7
2018-08-24T19:43:04.228Z,1.3
2018-08-24T19:53:18.469Z,1.0
2018-08-24T20:03:32.544Z,0.7
2018-08-24T20:13:47.367Z,0.7
2018-08-24T20:24:00.888Z,0.8
2018-08-24T20:34:45.749Z,3.5
2018-08-24T20:44:59.288Z,1.1
2018-08-24T21:06:41.080Z,1.3
2018-08-24T21:17:09.370Z,0.9
2018-08-24T21:27:40.229Z,1.3
2018-08-24T21:48:43.785Z,0.9
2018-08-24T21:59:28.481Z,0.7
2018-08-24T22:09:41.788Z,0.9
2018-08-24T22:19:55.311Z,1.1
2018-08-24T22:30:09.499Z,1.0
2018-08-24T22:41:42.984Z,0.7
2018-08-24T22:52:33.349Z,1.5
2018-08-24T23:02:46.590Z,1.1
2018-08-24T23:12:59.810Z,1.3
2018-08-24T23:23:14.305Z,1.1
